createdAt,value
2022-10-11T00:00:14.183Z,2.10
2022-10-11T00:02:41.326Z,3.60
2022-10-11T00:05:09.584Z,6.00
2022-10-11T00:07:39.823Z,4.50
2022-10-11T00:10:07.792Z,5.50
2022-10-11T00:12:35.862Z,2.60
2022-10-11T00:15:05.274Z,3.40
2022-10-11T00:17:33.440Z,4.00
2022-10-11T00:20:00.487Z,2.90
2022-10-11T00:22:27.535Z,5.40
2022-10-11T00:24:54.581Z,4.40
2022-10-11T00:27:21.562Z,1.40
2022-10-11T00:29:48.624Z,4.40
2022-10-11T00:32:15.928Z,3.00
2022-10-11T00:34:43.079Z,3.50
2022-10-11T00:37:10.132Z,5.20
2022-10-11T00:39:37.378Z,4.00
2022-10-11T00:42:04.630Z,4.20
2022-10-11T00:44:33.626Z,5.80
2022-10-11T00:47:05.184Z,4.40
2022-10-11T00:49:50.451Z,6.40
2022-10-11T00:52:31.612Z,5.40
2022-10-11T00:55:03.389Z,2.60
2022-10-11T00:57:35.251Z,2.70
2022-10-11T01:00:06.596Z,2.70
2022-10-11T01:02:33.644Z,6.70
2022-10-11T01:05:27.613Z,3.70
2022-10-11T01:07:48.731Z,3.40
2022-10-11T01:10:15.779Z,3.70
2022-10-11T01:13:08.734Z,2.90
2022-10-11T01:15:42.562Z,4.50
2022-10-11T01:18:28.019Z,3.40
2022-10-11T01:21:10.938Z,2.40
2022-10-11T01:23:52.015Z,3.20
2022-10-11T01:26:31.249Z,3.40
2022-10-11T01:29:07.307Z,2.80
2022-10-11T01:31:48.182Z,3.80
2022-10-11T01:34:24.364Z,7.10
2022-10-11T01:37:06.566Z,8.60
2022-10-11T01:39:40.876Z,12.10
2022-10-11T01:42:11.202Z,8.10
2022-10-11T01:44:41.784Z,7.50
2022-10-11T01:47:08.734Z,3.10
2022-10-11T01:49:35.809Z,3.10
2022-10-11T01:52:06.067Z,2.40
2022-10-11T01:55:08.002Z,4.90
2022-10-11T01:57:48.340Z,2.40
2022-10-11T02:00:19.880Z,5.10
2022-10-11T02:02:52.899Z,2.80
2022-10-11T02:05:47.496Z,4.10
2022-10-11T02:08:24.174Z,3.00
2022-10-11T02:11:02.432Z,3.30
2022-10-11T02:13:54.612Z,3.10
2022-10-11T02:18:55.879Z,4.50
2022-10-11T02:21:24.874Z,3.90
2022-10-11T02:23:59.705Z,3.70
2022-10-11T02:26:30.905Z,5.60
2022-10-11T02:29:01.383Z,5.40
2022-10-11T02:31:30.977Z,4.60
2022-10-11T02:34:26.287Z,4.00
2022-10-11T02:37:01.631Z,3.70
2022-10-11T02:39:52.534Z,3.80
2022-10-11T02:42:27.026Z,4.60
2022-10-11T02:45:01.477Z,3.60
2022-10-11T02:47:31.291Z,2.90
2022-10-11T02:50:02.093Z,2.10
2022-10-11T02:52:29.071Z,4.40
2022-10-11T02:54:56.074Z,4.50
2022-10-11T02:57:22.998Z,4.30
2022-10-11T02:59:50.009Z,3.40
2022-10-11T03:02:17.003Z,4.10
2022-10-11T03:04:44.206Z,3.90
2022-10-11T03:07:11.766Z,3.00
2022-10-11T03:09:38.815Z,3.70
2022-10-11T03:12:05.863Z,3.30
2022-10-11T03:14:32.909Z,1.60
2022-10-11T03:17:17.280Z,4.50
2022-10-11T03:19:47.758Z,3.60
2022-10-11T03:22:15.212Z,3.70
2022-10-11T03:24:42.312Z,4.50
2022-10-11T03:27:09.295Z,3.10
2022-10-11T03:29:36.330Z,2.20
2022-10-11T03:32:03.847Z,3.10
2022-10-11T03:34:30.895Z,4.10
2022-10-11T03:36:57.919Z,5.70
2022-10-11T03:39:24.990Z,4.90
2022-10-11T03:41:52.038Z,1.80
2022-10-11T03:44:19.090Z,3.10
2022-10-11T03:46:46.132Z,2.10
2022-10-11T03:49:13.087Z,3.10
2022-10-11T03:51:40.125Z,3.00
2022-10-11T03:54:07.173Z,1.60
2022-10-11T03:56:34.215Z,2.50
2022-10-11T03:59:02.235Z,2.10
2022-10-11T04:01:29.396Z,2.90
2022-10-11T04:03:57.512Z,3.80
2022-10-11T04:06:24.662Z,3.30
2022-10-11T04:08:51.545Z,3.40
2022-10-11T04:11:18.601Z,3.70
2022-10-11T04:13:46.280Z,2.60
2022-10-11T04:16:13.282Z,3.30
2022-10-11T04:18:40.424Z,2.40
2022-10-11T04:21:07.766Z,3.20
2022-10-11T04:23:35.084Z,3.40
2022-10-11T04:26:07.589Z,4.10
2022-10-11T04:28:36.066Z,3.70
2022-10-11T04:31:05.268Z,5.60
2022-10-11T04:33:32.380Z,5.40
2022-10-11T04:35:59.301Z,4.00
2022-10-11T04:38:26.426Z,3.30
2022-10-11T04:40:53.388Z,2.80
2022-10-11T04:43:20.486Z,3.90
2022-10-11T04:45:47.502Z,6.00
2022-10-11T04:48:14.479Z,7.30
2022-10-11T04:50:41.450Z,3.60
2022-10-11T04:53:08.455Z,4.70
2022-10-11T04:55:35.520Z,6.40
2022-10-11T04:58:02.508Z,4.80
2022-10-11T05:00:29.567Z,2.20
2022-10-11T05:02:57.127Z,5.10
2022-10-11T05:05:24.059Z,4.00
2022-10-11T05:07:51.029Z,3.80
2022-10-11T05:10:18.106Z,4.70
2022-10-11T05:12:45.049Z,4.80
2022-10-11T05:15:12.130Z,6.10
2022-10-11T05:17:39.615Z,6.20
2022-10-11T05:20:07.311Z,5.90
2022-10-11T05:22:34.516Z,4.20
2022-10-11T05:25:01.587Z,5.90
2022-10-11T05:27:28.601Z,2.70
2022-10-11T05:29:55.626Z,3.90
2022-10-11T05:32:26.654Z,2.50
2022-10-11T05:34:54.847Z,3.60
2022-10-11T05:37:21.913Z,5.10
2022-10-11T05:39:48.864Z,4.30
2022-10-11T05:42:15.905Z,4.00
2022-10-11T05:44:42.865Z,5.60
2022-10-11T05:47:09.880Z,7.10
2022-10-11T05:49:37.017Z,4.70
2022-10-11T05:52:04.110Z,4.30
2022-10-11T05:54:31.395Z,2.20
2022-10-11T05:56:58.388Z,4.60
2022-10-11T05:59:25.541Z,3.00
2022-10-11T06:01:52.841Z,3.20
2022-10-11T06:04:19.939Z,5.20
2022-10-11T06:06:47.090Z,8.60
2022-10-11T06:09:14.049Z,6.30
2022-10-11T06:11:41.517Z,4.10
2022-10-11T06:14:09.535Z,3.30
2022-10-11T06:16:36.492Z,3.80
2022-10-11T06:19:04.734Z,3.00
2022-10-11T06:21:31.812Z,4.90
2022-10-11T06:24:01.957Z,6.10
2022-10-11T06:26:30.227Z,7.00
2022-10-11T06:28:57.777Z,6.80
2022-10-11T06:31:25.552Z,6.90
2022-10-11T06:33:52.493Z,6.40
2022-10-11T06:36:19.546Z,4.30
2022-10-11T06:38:46.574Z,8.00
2022-10-11T06:41:20.003Z,9.50
2022-10-11T06:43:49.562Z,6.80
2022-10-11T06:46:18.759Z,7.70
2022-10-11T06:48:47.300Z,5.00
2022-10-11T06:51:17.399Z,8.70
2022-10-11T06:53:49.968Z,6.80
2022-10-11T06:56:17.124Z,6.90
2022-10-11T06:58:44.173Z,6.10
2022-10-11T07:01:16.523Z,4.60
2022-10-11T07:03:43.629Z,6.80
2022-10-11T07:06:13.916Z,6.50
2022-10-11T07:08:41.167Z,7.10
2022-10-11T07:11:17.534Z,5.60
2022-10-11T07:13:52.978Z,7.00
2022-10-11T07:16:21.256Z,9.50
2022-10-11T07:18:55.908Z,5.50
2022-10-11T07:21:26.816Z,8.50
2022-10-11T07:23:53.833Z,5.80
2022-10-11T07:26:20.914Z,5.90
2022-10-11T07:28:48.217Z,3.70
2022-10-11T07:31:19.379Z,6.00
2022-10-11T07:33:47.139Z,6.20
2022-10-11T07:36:14.874Z,6.00
2022-10-11T07:38:43.839Z,5.20
2022-10-11T07:41:11.698Z,3.80
2022-10-11T07:43:39.253Z,4.10
2022-10-11T07:46:07.493Z,4.10
2022-10-11T07:48:36.363Z,3.30
2022-10-11T07:51:09.579Z,4.20
2022-10-11T07:53:45.882Z,3.80
2022-10-11T07:56:18.719Z,3.00
2022-10-11T07:58:51.397Z,2.40
2022-10-11T08:01:19.239Z,2.00
2022-10-11T08:03:47.275Z,1.70
2022-10-11T08:06:17.599Z,3.20
2022-10-11T08:08:44.646Z,4.30
2022-10-11T08:11:20.069Z,3.30
2022-10-11T08:13:47.139Z,2.60
2022-10-11T08:16:14.496Z,1.80
2022-10-11T08:20:12.371Z,1.60
2022-10-11T08:22:39.620Z,1.50
2022-10-11T08:25:07.141Z,1.70
2022-10-11T08:27:34.116Z,4.40
2022-10-11T08:30:01.091Z,1.20
2022-10-11T08:32:29.555Z,1.40
2022-10-11T08:34:57.115Z,2.20
2022-10-11T08:37:24.172Z,1.40
2022-10-11T08:39:51.209Z,0.80
2022-10-11T08:42:47.216Z,0.70
2022-10-11T08:45:29.541Z,0.90
2022-10-11T08:48:27.390Z,1.70
2022-10-11T08:50:54.672Z,0.90
2022-10-11T08:53:44.013Z,0.30
2022-10-11T08:56:14.125Z,2.10
2022-10-11T08:58:56.939Z,0.40
2022-10-11T09:01:27.323Z,1.00
2022-10-11T09:03:55.570Z,1.80
2022-10-11T09:06:31.720Z,0.90
2022-10-11T09:09:13.836Z,1.20
2022-10-11T09:11:49.973Z,1.20
2022-10-11T09:14:23.155Z,0.40
2022-10-11T09:17:25.664Z,0.50
2022-10-11T09:20:18.399Z,0.50
2022-10-11T09:22:57.646Z,0.60
2022-10-11T09:25:41.752Z,2.30
2022-10-11T09:28:31.407Z,2.00
2022-10-11T09:30:59.591Z,0.50
2022-10-11T09:33:34.373Z,0.30
2022-10-11T09:36:12.173Z,0.70
2022-10-11T09:38:48.568Z,0.80
2022-10-11T09:41:23.778Z,2.00
2022-10-11T09:43:52.794Z,0.80
2022-10-11T09:46:24.526Z,0.60
2022-10-11T09:48:54.752Z,0.40
2022-10-11T09:51:26.100Z,0.70
2022-10-11T09:54:00.303Z,1.00
2022-10-11T09:56:30.456Z,3.70
2022-10-11T09:59:10.284Z,2.20
2022-10-11T10:01:37.600Z,0.50
2022-10-11T10:04:14.471Z,0.90
2022-10-11T10:06:41.637Z,0.50
2022-10-11T10:09:41.199Z,1.00
2022-10-11T10:12:13.547Z,1.20
2022-10-11T10:14:41.823Z,0.90
2022-10-11T10:17:18.319Z,0.60
2022-10-11T10:19:50.617Z,0.80
2022-10-11T10:22:25.595Z,1.40
2022-10-11T10:24:54.133Z,0.60
2022-10-11T10:27:24.490Z,0.90
2022-10-11T10:30:13.426Z,1.10
2022-10-11T10:32:48.353Z,1.70
2022-10-11T10:35:31.316Z,1.50
2022-10-11T10:38:03.381Z,3.00
2022-10-11T10:40:48.665Z,1.10
2022-10-11T10:43:22.158Z,1.60
2022-10-11T10:46:17.978Z,1.40
2022-10-11T10:49:48.429Z,1.40
2022-10-11T10:51:50.890Z,2.00
2022-10-11T10:54:33.277Z,1.60
2022-10-11T10:57:04.136Z,1.20
2022-10-11T10:59:49.535Z,1.20
2022-10-11T11:02:39.529Z,1.50
2022-10-11T11:05:07.604Z,1.60
2022-10-11T11:07:47.480Z,2.50
2022-10-11T11:10:23.085Z,1.60
2022-10-11T11:12:56.399Z,1.20
2022-10-11T11:15:42.298Z,1.10
2022-10-11T13:47:15.927Z,3.30
2022-10-11T13:49:48.297Z,2.30
2022-10-11T13:52:18.389Z,2.80
2022-10-11T13:55:00.914Z,2.90
2022-10-11T13:57:34.289Z,4.40
2022-10-11T14:00:04.732Z,1.80
2022-10-11T14:02:39.623Z,2.10
2022-10-11T14:05:06.798Z,2.10
2022-10-11T14:07:38.682Z,5.50
2022-10-11T14:10:07.240Z,2.20
2022-10-11T14:12:39.869Z,2.90
2022-10-11T14:15:25.421Z,2.40
2022-10-11T14:17:52.484Z,3.50
2022-10-11T14:20:36.086Z,3.70
2022-10-11T14:23:03.321Z,3.10
2022-10-11T14:25:30.705Z,5.80
2022-10-11T14:27:58.404Z,3.40
2022-10-11T14:30:27.776Z,3.60
2022-10-11T14:32:57.111Z,3.80
2022-10-11T14:35:30.586Z,3.30
2022-10-11T14:37:58.168Z,7.00
2022-10-11T14:40:28.112Z,5.10
2022-10-11T14:42:55.395Z,6.60
2022-10-11T14:45:23.225Z,4.60
2022-10-11T14:47:51.025Z,12.90
2022-10-11T14:50:29.323Z,8.40
2022-10-11T14:52:56.621Z,8.70
2022-10-11T14:55:24.652Z,9.10
2022-10-11T14:57:51.954Z,5.80
2022-10-11T15:00:28.528Z,6.90
2022-10-11T15:02:55.957Z,8.20
2022-10-11T15:05:28.676Z,11.80
2022-10-11T15:07:58.298Z,7.90
2022-10-11T15:10:26.833Z,8.50
2022-10-11T15:12:55.604Z,8.10
2022-10-11T15:15:25.829Z,10.90
2022-10-11T15:17:58.236Z,7.70
2022-10-11T15:20:38.388Z,10.50
2022-10-11T15:23:07.940Z,10.00
2022-10-11T15:25:35.860Z,10.30
2022-10-11T15:28:02.799Z,11.00
2022-10-11T15:30:41.362Z,11.90
2022-10-11T15:33:09.467Z,7.60
2022-10-11T15:35:36.482Z,6.50
2022-10-11T15:38:03.906Z,6.40
2022-10-11T15:40:33.985Z,4.80
2022-10-11T15:43:02.036Z,5.90
2022-10-11T15:45:30.047Z,6.60
2022-10-11T15:47:57.454Z,6.00
2022-10-11T15:50:41.632Z,7.50
2022-10-11T15:53:14.920Z,4.00
2022-10-11T15:55:44.797Z,4.40
2022-10-11T15:58:36.809Z,3.50
2022-10-11T16:01:09.915Z,3.30
2022-10-11T16:03:37.056Z,4.90
2022-10-11T16:06:05.693Z,4.10
2022-10-11T16:08:34.288Z,6.90
2022-10-11T16:11:01.757Z,4.20
2022-10-11T16:13:28.742Z,5.00
2022-10-11T16:19:10.777Z,2.60
2022-10-11T16:21:37.851Z,4.30
2022-10-11T16:24:04.963Z,6.00
2022-10-11T16:26:32.128Z,3.80
2022-10-11T16:28:59.194Z,8.40
2022-10-11T16:31:26.737Z,3.40
2022-10-11T16:33:53.730Z,2.50
2022-10-11T16:36:31.916Z,4.60
2022-10-11T16:39:00.666Z,3.50
2022-10-11T16:41:28.111Z,6.10
2022-10-11T16:43:55.860Z,2.60
2022-10-11T16:46:23.357Z,4.10
2022-10-11T16:48:50.563Z,3.40
2022-10-11T16:51:17.524Z,3.00
2022-10-11T16:53:44.508Z,3.70
2022-10-11T16:56:12.716Z,4.30
2022-10-11T16:58:39.694Z,3.70
2022-10-11T17:01:11.372Z,6.20
2022-10-11T17:03:39.180Z,6.70
2022-10-11T17:06:07.986Z,11.40
2022-10-11T17:08:35.531Z,4.70
2022-10-11T17:11:03.473Z,3.80
2022-10-11T17:13:30.926Z,3.70
2022-10-11T17:15:58.310Z,8.30
2022-10-11T17:18:25.332Z,9.80
2022-10-11T17:21:05.009Z,6.70
2022-10-11T17:23:33.487Z,8.80
2022-10-11T17:26:10.766Z,11.30
2022-10-11T17:28:38.951Z,11.40
2022-10-11T17:31:08.160Z,9.00
2022-10-11T17:33:35.623Z,9.40
2022-10-11T17:36:02.915Z,9.40
2022-10-11T17:38:30.917Z,11.00
2022-10-11T17:41:05.936Z,12.60
2022-10-11T17:43:33.111Z,12.30
2022-10-11T17:46:05.274Z,12.70
2022-10-11T17:48:34.744Z,5.30
2022-10-11T17:51:09.797Z,5.50
2022-10-11T17:53:37.483Z,4.60
2022-10-11T17:56:16.809Z,5.20
2022-10-11T17:58:44.061Z,4.40
2022-10-11T18:01:14.539Z,4.20
2022-10-11T18:03:42.978Z,4.80
2022-10-11T18:06:13.432Z,3.60
2022-10-11T18:08:41.464Z,4.90
2022-10-11T18:11:14.428Z,4.80
2022-10-11T18:13:46.254Z,4.10
2022-10-11T18:16:16.624Z,4.70
2022-10-11T18:18:44.506Z,4.80
2022-10-11T18:21:12.573Z,7.20
2022-10-11T18:23:40.406Z,6.30
2022-10-11T18:26:15.191Z,6.00
2022-10-11T18:28:43.951Z,7.60
2022-10-11T18:31:15.538Z,6.10
2022-10-11T18:33:45.789Z,7.40
2022-10-11T18:36:15.672Z,6.00
2022-10-11T18:38:47.076Z,5.00
2022-10-11T18:41:16.608Z,4.20
2022-10-11T18:43:48.456Z,5.70
2022-10-11T18:48:54.344Z,5.10
2022-10-11T18:51:22.583Z,6.40
2022-10-11T18:53:50.464Z,5.50
2022-10-11T18:56:20.795Z,8.00
2022-10-11T18:58:49.278Z,6.80
2022-10-11T19:01:19.563Z,6.20
2022-10-11T19:03:48.614Z,5.80
2022-10-11T19:06:18.642Z,5.50
2022-10-11T19:08:47.982Z,5.40
2022-10-11T19:11:16.096Z,6.50
2022-10-11T19:13:44.003Z,7.10
2022-10-11T19:16:13.942Z,5.90
2022-10-11T19:18:44.261Z,7.70
2022-10-11T19:21:13.473Z,5.10
2022-10-11T19:23:42.820Z,6.90
2022-10-11T19:26:21.959Z,7.10
2022-10-11T19:28:53.812Z,11.60
2022-10-11T19:33:49.668Z,5.30
2022-10-11T19:36:17.285Z,5.00
2022-10-11T19:38:46.496Z,6.30
2022-10-11T19:41:14.966Z,5.70
2022-10-11T19:43:43.171Z,7.40
2022-10-11T19:46:20.281Z,8.10
2022-10-11T19:48:54.826Z,11.90
2022-10-11T19:51:24.108Z,5.60
2022-10-11T19:54:17.511Z,5.50
2022-10-11T19:56:44.853Z,4.10
2022-10-11T19:59:12.530Z,7.70
2022-10-11T20:01:40.966Z,4.60
2022-10-11T20:04:27.550Z,4.20
2022-10-11T20:06:58.549Z,9.20
2022-10-11T20:09:30.420Z,5.80
2022-10-11T20:11:58.252Z,5.00
2022-10-11T20:14:25.635Z,6.10
2022-10-11T20:16:53.032Z,4.80
2022-10-11T20:19:24.881Z,3.90
2022-10-11T20:21:54.957Z,4.60
2022-10-11T20:24:21.917Z,8.70
2022-10-11T20:26:48.946Z,6.30
2022-10-11T20:29:15.904Z,6.20
2022-10-11T20:31:43.040Z,5.30
2022-10-11T20:34:11.037Z,7.80
2022-10-11T20:36:38.299Z,5.40
2022-10-11T20:39:05.780Z,5.50
2022-10-11T20:41:37.212Z,5.30
2022-10-11T20:44:05.409Z,6.40
2022-10-11T20:46:35.023Z,5.30
2022-10-11T20:49:05.089Z,5.50
2022-10-11T20:51:34.729Z,4.30
2022-10-11T20:54:02.277Z,8.20
2022-10-11T20:56:30.373Z,6.30
2022-10-11T20:58:58.768Z,7.30
2022-10-11T21:01:38.193Z,5.50
2022-10-11T21:04:07.083Z,4.20
2022-10-11T21:06:34.494Z,6.10
2022-10-11T21:09:01.910Z,8.20
2022-10-11T21:11:33.630Z,5.70
2022-10-11T21:16:30.039Z,5.20
2022-10-11T21:18:59.354Z,7.30
2022-10-11T21:21:27.636Z,6.80
2022-10-11T21:24:02.053Z,6.10
2022-10-11T21:26:30.772Z,4.30
2022-10-11T21:28:59.612Z,6.70
2022-10-11T21:31:31.261Z,12.30
2022-10-11T21:34:01.737Z,5.30
2022-10-11T21:36:28.877Z,3.90
2022-10-11T21:38:56.451Z,4.40
2022-10-11T21:41:30.325Z,7.10
2022-10-11T21:43:58.056Z,8.20
2022-10-11T21:47:04.826Z,6.90
2022-10-11T21:49:17.668Z,6.30
2022-10-11T21:51:45.239Z,6.10
2022-10-11T21:54:12.292Z,7.80
2022-10-11T21:56:39.532Z,8.50
2022-10-11T21:59:09.557Z,7.10
2022-10-11T22:01:40.519Z,7.10
2022-10-11T22:04:08.095Z,7.60
2022-10-11T22:06:36.131Z,7.80
2022-10-11T22:09:04.260Z,6.80
2022-10-11T22:11:31.472Z,10.00
2022-10-11T22:13:58.861Z,9.10
2022-10-11T22:16:25.905Z,9.80
2022-10-11T22:18:55.960Z,6.30
2022-10-11T22:21:24.334Z,6.50
2022-10-11T22:23:52.998Z,7.20
2022-10-11T22:26:22.651Z,9.60
2022-10-11T22:28:50.578Z,9.30
2022-10-11T22:31:19.712Z,7.00
2022-10-11T22:33:46.798Z,7.00
2022-10-11T22:36:16.770Z,11.70
2022-10-11T22:38:44.162Z,7.60
2022-10-11T22:41:11.662Z,7.40
2022-10-11T22:43:38.770Z,10.40
2022-10-11T22:46:06.242Z,7.30
2022-10-11T22:48:33.466Z,5.60
2022-10-11T22:51:01.055Z,7.70
2022-10-11T22:53:28.670Z,8.60
2022-10-11T22:55:55.628Z,8.20
2022-10-11T22:58:22.626Z,6.50
2022-10-11T23:00:49.721Z,8.60
2022-10-11T23:03:18.452Z,6.80
2022-10-11T23:05:55.384Z,9.80
2022-10-11T23:08:22.909Z,8.50
2022-10-11T23:10:49.982Z,6.90
2022-10-11T23:13:17.003Z,6.00
2022-10-11T23:15:44.182Z,9.30
2022-10-11T23:18:12.044Z,6.50
2022-10-11T23:20:40.017Z,7.40
2022-10-11T23:23:07.673Z,7.20
2022-10-11T23:25:34.722Z,9.50
2022-10-11T23:28:02.385Z,7.90
2022-10-11T23:30:30.355Z,9.00
2022-10-11T23:32:57.412Z,8.70
2022-10-11T23:35:24.483Z,7.60
2022-10-11T23:37:53.919Z,10.90
2022-10-11T23:40:20.995Z,8.70
2022-10-11T23:42:48.013Z,8.60
2022-10-11T23:45:15.301Z,9.90
2022-10-11T23:47:42.319Z,12.90
2022-10-11T23:50:09.491Z,7.90
2022-10-11T23:52:36.659Z,9.50
2022-10-11T23:55:04.290Z,8.90
2022-10-11T23:57:31.532Z,11.40
2022-10-11T23:59:58.553Z,8.50
